Hope, Canada
Current Conditions -  °F | °C
As of 2:02 PM on Tuesday 25 Nov 2014 (Local Time) from CYHE Reporting Station
Moderate Rain Moderate Rain  
Wind Chill:   Ceiling: 1400
Heat Index:   Visibility: 7mi
Dew Point:   Wind: 6mph
Humidity: 93%   Direction: 80°E
Pressure: 30.25"   Gusts: NA
Location:  49.36°N, 121.5°W
Report Text: CYHE 252202Z AUTO 08005KT 7SM RA BKN014 BKN040 06/05 A3025 RMK SLP244
Loading
Personal Weather Stations






























Interactive Weather Map New forecast layout! Learn more

10-Day Weather Forecast

Advertisements
Track Severe Weather on mobile